Time;durP1;ratioP1;P1;durP2;ratioP2;P2;SDS_P1;SDS_P2;PMS_P1;PMS_P2;Temp;Humidity;BMP_temperature;BMP_pressure;BME280_temperature;BME280_humidity;BME280_pressure;Samples;Min_cycle;Max_cycle;Signal;HPM_P1;HPM_P2
2022/11/19 00:01:54;;;;;;;2.75;1.77;;;;;;;;;;7388853;19;20033;-73
2022/11/19 00:04:19;;;;;;;5.15;2.10;;;;;;;;;;7390194;19;19998;-73
2022/11/19 00:06:45;;;;;;;4.97;2.08;;;;;;;;;;7387526;19;19999;-73
2022/11/19 00:09:13;;;;;;;4.40;1.90;;;;;;;;;;7388173;19;20340;-73
2022/11/19 00:14:23;;;;;;;4.75;1.90;;;;;;;;;;7390618;19;20015;-73
2022/11/19 00:16:48;;;;;;;3.63;2.03;;;;;;;;;;7387322;19;20006;-73
2022/11/19 00:19:13;;;;;;;4.55;2.10;;;;;;;;;;7389062;19;19998;-73
2022/11/19 00:21:39;;;;;;;9.05;2.22;;;;;;;;;;7389879;19;20199;-73
2022/11/19 00:24:04;;;;;;;5.57;2.35;;;;;;;;;;7388004;19;20062;-73
2022/11/19 00:26:30;;;;;;;6.78;2.95;;;;;;;;;;7386627;19;19995;-73
2022/11/19 00:28:55;;;;;;;10.50;4.35;;;;;;;;;;7389726;19;19995;-73
2022/11/19 00:31:20;;;;;;;10.95;5.05;;;;;;;;;;7389486;19;20002;-73
2022/11/19 00:33:48;;;;;;;10.30;5.63;;;;;;;;;;7389340;19;19999;-73
2022/11/19 00:36:14;;;;;;;9.13;5.30;;;;;;;;;;7393557;19;20006;-73
2022/11/19 00:38:39;;;;;;;15.52;6.65;;;;;;;;;;7388913;19;19995;-73
2022/11/19 00:41:05;;;;;;;12.00;5.90;;;;;;;;;;7389807;19;20527;-73
2022/11/19 00:43:46;;;;;;;11.15;6.55;;;;;;;;;;7389481;19;19994;-73
2022/11/19 00:46:16;;;;;;;14.37;7.30;;;;;;;;;;7389217;19;20024;-74
2022/11/19 00:48:42;;;;;;;12.30;6.38;;;;;;;;;;7387522;19;20463;-73
2022/11/19 00:51:09;;;;;;;10.77;6.63;;;;;;;;;;7389303;19;20011;-73
2022/11/19 00:53:35;;;;;;;11.15;6.13;;;;;;;;;;7387571;19;20028;-74
2022/11/19 00:56:02;;;;;;;10.77;6.15;;;;;;;;;;7389620;19;19999;-73
2022/11/19 00:58:27;;;;;;;12.32;6.35;;;;;;;;;;7386890;19;19998;-74
2022/11/19 01:00:52;;;;;;;11.27;5.75;;;;;;;;;;7389798;19;20452;-73
2022/11/19 01:03:18;;;;;;;9.13;5.32;;;;;;;;;;7388542;19;20545;-73
2022/11/19 01:05:43;;;;;;;8.85;4.82;;;;;;;;;;7389298;19;19987;-73
2022/11/19 01:08:09;;;;;;;8.52;4.50;;;;;;;;;;7385750;19;20005;-73
2022/11/19 01:10:35;;;;;;;9.45;5.60;;;;;;;;;;7385768;19;20095;-73
2022/11/19 01:15:49;;;;;;;10.40;4.57;;;;;;;;;;7383772;19;20038;-74
2022/11/19 01:18:15;;;;;;;9.02;5.20;;;;;;;;;;7381325;19;20382;-73
2022/11/19 01:20:40;;;;;;;10.20;5.47;;;;;;;;;;7383577;19;20354;-73
2022/11/19 01:23:06;;;;;;;10.27;5.30;;;;;;;;;;7383821;19;19998;-73
2022/11/19 01:25:31;;;;;;;12.25;5.97;;;;;;;;;;7383706;19;20002;-73
2022/11/19 01:27:57;;;;;;;10.63;6.38;;;;;;;;;;7385485;19;20033;-73
2022/11/19 01:30:22;;;;;;;10.68;6.20;;;;;;;;;;7387568;19;20002;-74
2022/11/19 01:32:48;;;;;;;12.77;6.25;;;;;;;;;;7387735;19;20009;-73
2022/11/19 01:35:13;;;;;;;10.95;5.75;;;;;;;;;;7385330;19;20530;-73
2022/11/19 01:37:38;;;;;;;9.98;5.63;;;;;;;;;;7385537;19;19999;-73
2022/11/19 01:40:04;;;;;;;10.90;6.22;;;;;;;;;;7387236;19;19999;-73
2022/11/19 01:42:52;;;;;;;10.90;6.65;;;;;;;;;;7387567;19;20054;-73
2022/11/19 01:45:27;;;;;;;10.65;6.28;;;;;;;;;;7387138;19;20019;-73
2022/11/19 01:47:55;;;;;;;10.20;6.32;;;;;;;;;;7384676;19;20015;-73
2022/11/19 01:50:21;;;;;;;12.05;6.20;;;;;;;;;;7386690;19;20006;-74
2022/11/19 01:52:47;;;;;;;12.48;6.78;;;;;;;;;;7387050;19;20018;-73
2022/11/19 01:55:13;;;;;;;9.35;5.38;;;;;;;;;;7387011;19;20460;-73
2022/11/19 01:57:39;;;;;;;9.88;6.30;;;;;;;;;;7384939;19;20028;-73
2022/11/19 02:00:06;;;;;;;11.43;6.18;;;;;;;;;;7384597;19;20539;-73
2022/11/19 02:02:32;;;;;;;10.38;6.43;;;;;;;;;;7386701;19;20499;-73
2022/11/19 02:04:59;;;;;;;10.95;6.13;;;;;;;;;;7385189;19;20107;-73
2022/11/19 02:07:28;;;;;;;11.30;6.40;;;;;;;;;;7385448;19;20044;-73
2022/11/19 02:09:55;;;;;;;10.57;6.18;;;;;;;;;;7386326;19;20003;-73
2022/11/19 02:12:40;;;;;;;12.27;6.63;;;;;;;;;;7387689;19;20013;-73
2022/11/19 02:15:28;;;;;;;9.93;5.68;;;;;;;;;;7393409;19;20006;-73
2022/11/19 02:18:04;;;;;;;11.63;6.22;;;;;;;;;;7391275;19;20083;-73
2022/11/19 02:20:42;;;;;;;11.68;6.28;;;;;;;;;;7391512;19;20003;-73
2022/11/19 02:23:32;;;;;;;11.50;6.97;;;;;;;;;;7391390;19;20007;-72
2022/11/19 02:26:19;;;;;;;10.65;5.97;;;;;;;;;;7393422;19;20069;-73
2022/11/19 02:28:52;;;;;;;10.88;6.78;;;;;;;;;;7393323;19;20013;-73
2022/11/19 02:31:34;;;;;;;11.80;6.50;;;;;;;;;;7391754;19;20002;-72
2022/11/19 02:34:26;;;;;;;13.80;7.05;;;;;;;;;;7393767;19;20369;-72
2022/11/19 02:37:01;;;;;;;11.73;6.93;;;;;;;;;;7390471;19;20033;-72
2022/11/19 02:39:39;;;;;;;14.32;7.25;;;;;;;;;;7393233;19;20019;-72
2022/11/19 02:42:18;;;;;;;13.35;6.55;;;;;;;;;;7393226;19;20011;-73
2022/11/19 02:44:58;;;;;;;12.38;6.88;;;;;;;;;;7393725;19;20002;-73
2022/11/19 02:47:32;;;;;;;13.85;6.88;;;;;;;;;;7392353;19;20011;-72
2022/11/19 02:50:03;;;;;;;12.02;7.18;;;;;;;;;;7392765;19;20027;-73
2022/11/19 02:52:28;;;;;;;12.35;6.82;;;;;;;;;;7393286;19;20009;-73
2022/11/19 02:54:53;;;;;;;14.43;7.40;;;;;;;;;;7393050;19;19995;-73
2022/11/19 02:57:19;;;;;;;14.52;7.10;;;;;;;;;;7394015;19;19998;-72
2022/11/19 03:05:26;;;;;;;17.05;7.28;;;;;;;;;;7392599;19;20472;-72
2022/11/19 03:07:51;;;;;;;15.02;7.60;;;;;;;;;;7388527;19;20019;-73
2022/11/19 03:10:19;;;;;;;13.38;7.25;;;;;;;;;;7396112;19;20436;-72
2022/11/19 03:12:52;;;;;;;14.38;7.85;;;;;;;;;;7390750;19;19998;-73
2022/11/19 03:18:31;;;;;;;13.65;6.50;;;;;;;;;;7389345;19;20018;-72
2022/11/19 03:21:06;;;;;;;13.45;7.00;;;;;;;;;;7390236;19;19995;-72
2022/11/19 03:23:43;;;;;;;14.10;5.88;;;;;;;;;;7391079;19;19990;-73
2022/11/19 03:26:30;;;;;;;11.85;6.22;;;;;;;;;;7391066;19;19995;-73
2022/11/19 03:29:00;;;;;;;10.38;5.35;;;;;;;;;;7391253;19;20018;-73
2022/11/19 03:31:28;;;;;;;11.02;5.20;;;;;;;;;;7391235;19;20432;-73
2022/11/19 03:33:58;;;;;;;10.98;5.75;;;;;;;;;;7389591;19;20411;-73
2022/11/19 03:36:31;;;;;;;9.45;4.95;;;;;;;;;;7390221;19;20013;-72
2022/11/19 03:39:02;;;;;;;11.02;5.40;;;;;;;;;;7391309;19;20131;-72
2022/11/19 03:41:29;;;;;;;9.77;4.97;;;;;;;;;;7391162;19;19990;-72
2022/11/19 03:44:00;;;;;;;12.57;5.50;;;;;;;;;;7390749;19;20035;-72
2022/11/19 03:46:27;;;;;;;;;;;;;;;;;;7388685;19;19990;-72
2022/11/19 03:48:55;;;;;;;8.20;4.72;;;;;;;;;;7391100;19;20284;-73
2022/11/19 03:51:40;;;;;;;13.00;4.47;;;;;;;;;;7390585;19;20486;-72
2022/11/19 03:54:06;;;;;;;10.75;4.88;;;;;;;;;;7389306;19;20042;-73
2022/11/19 03:56:35;;;;;;;10.13;5.38;;;;;;;;;;7390317;19;20423;-72
2022/11/19 03:59:03;;;;;;;9.02;4.60;;;;;;;;;;7390254;19;19999;-73
2022/11/19 04:01:28;;;;;;;8.35;4.88;;;;;;;;;;7390431;19;20009;-72
2022/11/19 04:04:54;;;;;;;12.63;5.07;;;;;;;;;;7390399;19;20078;-73
2022/11/19 04:06:48;;;;;;;9.02;4.80;;;;;;;;;;7387776;19;20523;-73
2022/11/19 04:09:14;;;;;;;12.35;6.00;;;;;;;;;;7389801;19;19991;-72
2022/11/19 04:11:39;;;;;;;11.98;5.95;;;;;;;;;;7390049;19;20480;-73
2022/11/19 04:14:05;;;;;;;10.15;5.85;;;;;;;;;;7389628;19;20019;-73
2022/11/19 04:16:30;;;;;;;10.85;5.82;;;;;;;;;;7389150;19;20053;-72
2022/11/19 04:18:55;;;;;;;11.13;5.93;;;;;;;;;;7389455;19;20020;-73
2022/11/19 04:21:21;;;;;;;10.63;5.72;;;;;;;;;;7387997;19;19998;-72
2022/11/19 04:23:46;;;;;;;9.43;5.28;;;;;;;;;;7389801;19;20335;-72
2022/11/19 04:26:11;;;;;;;9.13;4.78;;;;;;;;;;7389020;19;20009;-72
2022/11/19 04:28:37;;;;;;;10.95;5.40;;;;;;;;;;7386412;19;19999;-73
2022/11/19 04:31:02;;;;;;;9.82;5.47;;;;;;;;;;7389285;19;20006;-72
2022/11/19 04:33:27;;;;;;;10.77;5.55;;;;;;;;;;7388860;19;20439;-72
2022/11/19 04:35:53;;;;;;;9.90;5.03;;;;;;;;;;7388948;19;20003;-73
2022/11/19 04:38:18;;;;;;;11.52;5.95;;;;;;;;;;7386975;19;20002;-73
2022/11/19 04:40:43;;;;;;;14.20;5.88;;;;;;;;;;7389034;19;20002;-73
2022/11/19 04:43:09;;;;;;;10.82;5.50;;;;;;;;;;7389021;19;20027;-73
2022/11/19 04:45:34;;;;;;;11.38;5.53;;;;;;;;;;7389191;19;19999;-73
2022/11/19 04:47:59;;;;;;;9.63;4.75;;;;;;;;;;7386883;19;20456;-72
2022/11/19 04:50:25;;;;;;;10.60;5.75;;;;;;;;;;7389072;19;20010;-73
2022/11/19 04:52:50;;;;;;;10.77;4.82;;;;;;;;;;7388573;19;20002;-73
2022/11/19 04:55:15;;;;;;;9.02;4.90;;;;;;;;;;7388527;19;19999;-72
2022/11/19 04:57:41;;;;;;;12.52;6.05;;;;;;;;;;7386840;19;19999;-73
2022/11/19 05:00:07;;;;;;;11.68;5.80;;;;;;;;;;7389280;19;20382;-73
2022/11/19 05:02:32;;;;;;;12.27;5.68;;;;;;;;;;7388178;19;19999;-73
2022/11/19 05:04:58;;;;;;;11.15;6.47;;;;;;;;;;7386582;19;20025;-73
2022/11/19 05:07:23;;;;;;;11.98;5.85;;;;;;;;;;7386942;19;20040;-73
2022/11/19 05:09:48;;;;;;;13.18;7.05;;;;;;;;;;7388221;19;20019;-72
2022/11/19 05:12:14;;;;;;;13.32;6.80;;;;;;;;;;7388487;19;20011;-72
2022/11/19 05:14:39;;;;;;;12.07;6.07;;;;;;;;;;7388183;19;20357;-72
2022/11/19 05:17:04;;;;;;;14.95;7.13;;;;;;;;;;7386948;19;20642;-72
2022/11/19 05:19:30;;;;;;;14.73;8.07;;;;;;;;;;7388489;19;20435;-73
2022/11/19 05:21:55;;;;;;;13.82;7.90;;;;;;;;;;7388320;19;20003;-72
2022/11/19 05:24:21;;;;;;;14.70;7.60;;;;;;;;;;7387900;19;19998;-73
2022/11/19 05:26:46;;;;;;;14.10;7.72;;;;;;;;;;7387327;19;20465;-72
2022/11/19 05:29:11;;;;;;;14.48;7.32;;;;;;;;;;7387960;19;20019;-72
2022/11/19 05:31:37;;;;;;;13.85;6.60;;;;;;;;;;7387513;19;20474;-72
2022/11/19 05:34:02;;;;;;;14.43;7.72;;;;;;;;;;7387475;19;20081;-72
2022/11/19 05:36:27;;;;;;;14.98;7.72;;;;;;;;;;7386202;19;19995;-74
2022/11/19 05:38:53;;;;;;;11.40;7.43;;;;;;;;;;7387062;19;20479;-74
2022/11/19 05:41:18;;;;;;;15.88;8.48;;;;;;;;;;7385043;19;20359;-74
2022/11/19 05:43:43;;;;;;;16.77;7.88;;;;;;;;;;7387132;19;20023;-74
2022/11/19 05:46:08;;;;;;;14.15;7.78;;;;;;;;;;7387140;19;19994;-74
2022/11/19 05:48:34;;;;;;;15.90;8.25;;;;;;;;;;7381036;19;20029;-73
2022/11/19 05:50:59;;;;;;;15.50;7.93;;;;;;;;;;7391312;19;20022;-74
2022/11/19 05:53:25;;;;;;;15.65;8.48;;;;;;;;;;7386618;19;20006;-72
2022/11/19 05:55:50;;;;;;;14.90;7.43;;;;;;;;;;7385125;19;20077;-74
2022/11/19 05:58:16;;;;;;;14.68;7.20;;;;;;;;;;7384367;19;19998;-74
2022/11/19 06:00:41;;;;;;;14.23;7.90;;;;;;;;;;7387507;19;20010;-74
2022/11/19 06:03:08;;;;;;;15.73;7.57;;;;;;;;;;7386717;19;20077;-72
2022/11/19 06:05:33;;;;;;;13.07;6.95;;;;;;;;;;7386514;19;20106;-72
2022/11/19 06:07:58;;;;;;;12.43;5.68;;;;;;;;;;7384255;19;20326;-73
2022/11/19 06:10:24;;;;;;;13.30;6.70;;;;;;;;;;7387463;19;20006;-74
2022/11/19 06:12:49;;;;;;;12.43;6.00;;;;;;;;;;7386283;19;19998;-71
2022/11/19 06:15:14;;;;;;;13.27;6.60;;;;;;;;;;7385975;19;20006;-74
2022/11/19 06:17:40;;;;;;;11.95;5.90;;;;;;;;;;7384441;19;20011;-72
2022/11/19 06:20:09;;;;;;;11.95;5.20;;;;;;;;;;7385899;19;20009;-72
2022/11/19 06:22:36;;;;;;;12.07;5.78;;;;;;;;;;7384213;19;20006;-72
2022/11/19 06:25:02;;;;;;;13.70;6.90;;;;;;;;;;7385922;19;19995;-72
2022/11/19 06:27:28;;;;;;;13.35;6.07;;;;;;;;;;7384074;19;20006;-73
2022/11/19 06:29:53;;;;;;;13.15;6.60;;;;;;;;;;7384061;19;20003;-72
2022/11/19 06:32:18;;;;;;;14.27;5.72;;;;;;;;;;7385697;19;19998;-72
2022/11/19 06:34:44;;;;;;;14.55;6.28;;;;;;;;;;7385609;19;19999;-72
2022/11/19 06:37:09;;;;;;;15.20;6.63;;;;;;;;;;7384119;19;20023;-73
2022/11/19 06:39:34;;;;;;;13.25;6.45;;;;;;;;;;7385743;19;20005;-72
2022/11/19 06:42:34;;;;;;;12.48;6.13;;;;;;;;;;7385471;19;20017;-72
2022/11/19 06:44:45;;;;;;;13.43;6.57;;;;;;;;;;7385344;19;20001;-72
2022/11/19 06:47:10;;;;;;;13.30;6.18;;;;;;;;;;7386450;19;20437;-73
2022/11/19 06:49:36;;;;;;;11.88;5.50;;;;;;;;;;7388787;19;20764;-72
2022/11/19 06:52:01;;;;;;;13.02;5.95;;;;;;;;;;7385150;19;20024;-72
2022/11/19 06:54:26;;;;;;;9.82;5.40;;;;;;;;;;7388127;19;19999;-72
2022/11/19 06:56:52;;;;;;;12.57;6.03;;;;;;;;;;7384738;19;20003;-72
2022/11/19 06:59:17;;;;;;;11.63;6.10;;;;;;;;;;7384129;19;20016;-72
2022/11/19 07:01:42;;;;;;;12.70;6.05;;;;;;;;;;7392910;19;19998;-72
2022/11/19 07:04:09;;;;;;;15.40;6.68;;;;;;;;;;7392704;19;20073;-72
2022/11/19 07:06:34;;;;;;;12.50;6.40;;;;;;;;;;7390392;19;20010;-72
2022/11/19 07:08:59;;;;;;;12.88;5.68;;;;;;;;;;7392669;19;20455;-73
2022/11/19 07:11:25;;;;;;;11.82;5.75;;;;;;;;;;7390990;19;20023;-73
2022/11/19 07:13:57;;;;;;;11.05;5.25;;;;;;;;;;7392439;19;20002;-73
2022/11/19 07:16:23;;;;;;;13.18;6.35;;;;;;;;;;7391895;19;20564;-74
2022/11/19 07:18:48;;;;;;;13.10;6.80;;;;;;;;;;7390645;19;20009;-72
2022/11/19 07:21:14;;;;;;;14.77;6.50;;;;;;;;;;7392346;19;20050;-73
2022/11/19 07:23:39;;;;;;;13.05;6.75;;;;;;;;;;7392565;19;20002;-73
2022/11/19 07:26:04;;;;;;;12.30;5.95;;;;;;;;;;7392569;19;20019;-73
2022/11/19 07:28:30;;;;;;;15.02;6.97;;;;;;;;;;7387999;19;20070;-73
2022/11/19 07:30:55;;;;;;;12.30;6.53;;;;;;;;;;7392319;19;20380;-73
2022/11/19 07:33:20;;;;;;;11.40;5.95;;;;;;;;;;7325897;19;20026;-74
2022/11/19 07:35:46;;;;;;;10.57;5.90;;;;;;;;;;7390813;19;20003;-73
2022/11/19 07:38:11;;;;;;;11.98;5.72;;;;;;;;;;7393118;19;19994;-73
2022/11/19 07:40:36;;;;;;;13.02;6.45;;;;;;;;;;7392062;19;20010;-74
2022/11/19 07:43:01;;;;;;;14.07;6.65;;;;;;;;;;7391727;19;20002;-73
2022/11/19 07:45:27;;;;;;;12.13;6.43;;;;;;;;;;7391826;19;20019;-74
2022/11/19 07:47:52;;;;;;;13.32;6.35;;;;;;;;;;7283819;19;20317;-73
2022/11/19 07:50:18;;;;;;;12.00;6.45;;;;;;;;;;7393419;19;19994;-73
2022/11/19 07:52:43;;;;;;;11.73;6.03;;;;;;;;;;7393590;19;20393;-73
2022/11/19 07:55:09;;;;;;;9.38;5.28;;;;;;;;;;7393988;19;20003;-73
2022/11/19 07:57:34;;;;;;;12.38;6.53;;;;;;;;;;7383588;19;20010;-72
2022/11/19 08:00:00;;;;;;;10.70;5.53;;;;;;;;;;7392375;19;19999;-77
2022/11/19 08:02:25;;;;;;;13.48;6.72;;;;;;;;;;7393197;19;20058;-73
2022/11/19 08:04:51;;;;;;;14.52;7.20;;;;;;;;;;7389150;19;19998;-73
2022/11/19 08:07:16;;;;;;;11.73;5.90;;;;;;;;;;7387221;19;20009;-74
2022/11/19 08:09:41;;;;;;;13.38;6.78;;;;;;;;;;7389046;19;20006;-72
2022/11/19 08:12:07;;;;;;;11.38;5.97;;;;;;;;;;7387937;19;19999;-74
2022/11/19 08:14:32;;;;;;;13.40;6.72;;;;;;;;;;7393130;19;20037;-73
2022/11/19 08:19:44;;;;;;;13.10;6.30;;;;;;;;;;7394583;19;20118;-72
2022/11/19 08:22:10;;;;;;;17.05;6.78;;;;;;;;;;7390304;19;19999;-73
2022/11/19 08:24:35;;;;;;;13.75;6.43;;;;;;;;;;7388271;19;20002;-74
2022/11/19 08:27:01;;;;;;;18.27;5.75;;;;;;;;;;7388935;19;20018;-74
2022/11/19 08:29:26;;;;;;;15.82;7.65;;;;;;;;;;7390138;19;20018;-73
2022/11/19 08:31:51;;;;;;;14.40;7.10;;;;;;;;;;7389414;19;20005;-73
2022/11/19 08:34:17;;;;;;;14.75;7.00;;;;;;;;;;7389708;19;19999;-72
2022/11/19 08:36:43;;;;;;;15.90;6.82;;;;;;;;;;7388556;19;20021;-73
2022/11/19 08:39:09;;;;;;;13.77;6.47;;;;;;;;;;7389897;19;20395;-73
2022/11/19 08:44:19;;;;;;;13.57;6.40;;;;;;;;;;7389741;19;20071;-72
2022/11/19 08:46:45;;;;;;;17.33;7.30;;;;;;;;;;7386170;19;19998;-72
2022/11/19 08:49:11;;;;;;;13.32;7.28;;;;;;;;;;7389581;19;20064;-73
2022/11/19 08:51:37;;;;;;;13.45;6.82;;;;;;;;;;7388934;19;19991;-72
2022/11/19 08:54:03;;;;;;;14.52;7.00;;;;;;;;;;7387355;19;19998;-73
2022/11/19 08:56:29;;;;;;;14.55;6.45;;;;;;;;;;7388052;19;20013;-74
2022/11/19 08:58:55;;;;;;;12.50;6.32;;;;;;;;;;7389866;19;20345;-75
2022/11/19 09:01:21;;;;;;;11.82;5.55;;;;;;;;;;7392806;19;20028;-72
2022/11/19 09:03:47;;;;;;;13.75;6.25;;;;;;;;;;7388971;19;19998;-73
2022/11/19 09:06:12;;;;;;;14.70;6.50;;;;;;;;;;7387350;19;20014;-72
2022/11/19 09:08:39;;;;;;;11.13;6.03;;;;;;;;;;7386201;19;20004;-73
2022/11/19 09:11:13;;;;;;;13.75;5.70;;;;;;;;;;7392006;19;20005;-73
2022/11/19 09:13:39;;;;;;;11.60;5.65;;;;;;;;;;7389823;19;20005;-72
2022/11/19 09:16:05;;;;;;;12.07;5.13;;;;;;;;;;7392676;19;20006;-73
2022/11/19 09:18:32;;;;;;;12.85;5.90;;;;;;;;;;7386513;19;20478;-73
2022/11/19 09:20:58;;;;;;;12.43;6.10;;;;;;;;;;7387314;19;19999;-73
2022/11/19 09:23:25;;;;;;;12.02;5.63;;;;;;;;;;7390455;19;20475;-73
2022/11/19 09:25:59;;;;;;;10.30;4.90;;;;;;;;;;7389184;19;20005;-74
2022/11/19 09:28:26;;;;;;;13.23;5.65;;;;;;;;;;7386178;19;19987;-74
2022/11/19 09:31:21;;;;;;;11.07;4.90;;;;;;;;;;7388533;19;20006;-74
2022/11/19 09:33:49;;;;;;;12.73;5.95;;;;;;;;;;7383763;19;20005;-74
2022/11/19 09:36:17;;;;;;;9.45;4.90;;;;;;;;;;7382275;19;20006;-74
2022/11/19 09:38:43;;;;;;;8.85;4.97;;;;;;;;;;7384236;19;20430;-73
2022/11/19 09:41:24;;;;;;;8.82;4.68;;;;;;;;;;7386029;19;19999;-74
2022/11/19 09:44:08;;;;;;;;;;;;;;;;;;7388679;19;19998;-73
2022/11/19 09:46:58;;;;;;;8.68;3.85;;;;;;;;;;7387537;19;19954;-74
2022/11/19 09:49:36;;;;;;;9.30;4.50;;;;;;;;;;7388232;19;20013;-73
2022/11/19 09:52:09;;;;;;;11.10;4.70;;;;;;;;;;7387776;19;20022;-73
2022/11/19 09:54:41;;;;;;;11.25;4.43;;;;;;;;;;7388188;19;20291;-73
2022/11/19 09:57:14;;;;;;;7.93;4.43;;;;;;;;;;7384853;19;20031;-74
2022/11/19 09:59:40;;;;;;;9.30;4.35;;;;;;;;;;7387360;19;20020;-74
2022/11/19 10:02:20;;;;;;;9.55;4.82;;;;;;;;;;7385308;19;20436;-74
2022/11/19 10:04:47;;;;;;;10.32;4.68;;;;;;;;;;7384928;19;20006;-74
2022/11/19 10:07:16;;;;;;;8.52;5.07;;;;;;;;;;7385462;19;20316;-74
2022/11/19 10:09:55;;;;;;;10.50;5.05;;;;;;;;;;7388762;19;20035;-74
2022/11/19 10:12:41;;;;;;;9.52;3.95;;;;;;;;;;7386520;19;20008;-73
2022/11/19 10:15:48;;;;;;;10.70;5.22;;;;;;;;;;7389781;19;20055;-73
2022/11/19 10:18:26;;;;;;;9.82;4.63;;;;;;;;;;7378919;19;20036;-74
2022/11/19 10:20:55;;;;;;;10.50;4.50;;;;;;;;;;7382414;19;20260;-74
2022/11/19 10:24:10;;;;;;;9.55;4.35;;;;;;;;;;7381960;19;19998;-73
2022/11/19 10:26:41;;;;;;;10.73;5.22;;;;;;;;;;7378647;19;20010;-73
2022/11/19 10:29:15;;;;;;;11.02;4.78;;;;;;;;;;7382591;19;20003;-73
2022/11/19 10:31:49;;;;;;;10.88;5.22;;;;;;;;;;7382722;19;19994;-74
2022/11/19 10:34:22;;;;;;;10.05;4.93;;;;;;;;;;7389850;19;20472;-74
2022/11/19 10:36:54;;;;;;;12.93;5.13;;;;;;;;;;7391983;19;19999;-74
2022/11/19 10:39:38;;;;;;;11.70;6.47;;;;;;;;;;7392466;19;19998;-73
2022/11/19 10:42:25;;;;;;;10.95;5.55;;;;;;;;;;7393603;19;19994;-73
2022/11/19 10:45:21;;;;;;;9.50;4.95;;;;;;;;;;7389128;19;20034;-72
2022/11/19 10:47:57;;;;;;;8.88;5.40;;;;;;;;;;7394188;19;20494;-72
2022/11/19 10:50:24;;;;;;;9.77;4.95;;;;;;;;;;7390525;19;20006;-72
2022/11/19 10:52:56;;;;;;;10.48;4.90;;;;;;;;;;7388830;19;20058;-72
2022/11/19 10:55:24;;;;;;;12.00;5.20;;;;;;;;;;7394120;19;20010;-73
2022/11/19 10:58:21;;;;;;;11.57;5.85;;;;;;;;;;7393628;19;20491;-73
2022/11/19 11:00:47;;;;;;;10.32;5.28;;;;;;;;;;7394681;19;20010;-73
2022/11/19 11:03:26;;;;;;;11.18;5.82;;;;;;;;;;7391066;19;20002;-74
2022/11/19 11:06:02;;;;;;;11.27;6.05;;;;;;;;;;7390943;19;20006;-74
2022/11/19 11:08:27;;;;;;;11.43;5.15;;;;;;;;;;7389417;19;20003;-74
2022/11/19 11:10:54;;;;;;;10.82;5.47;;;;;;;;;;7390264;19;20027;-74
2022/11/19 11:16:25;;;;;;;14.73;6.45;;;;;;;;;;7391959;19;20095;-74
2022/11/19 11:18:52;;;;;;;14.13;5.75;;;;;;;;;;7391514;19;20470;-74
2022/11/19 11:21:39;;;;;;;12.25;5.63;;;;;;;;;;7392060;19;20017;-73
2022/11/19 11:24:05;;;;;;;15.15;7.07;;;;;;;;;;7392052;19;19995;-74
2022/11/19 11:26:32;;;;;;;15.02;6.88;;;;;;;;;;7390624;19;19998;-74
2022/11/19 11:29:13;;;;;;;18.08;7.07;;;;;;;;;;7392147;19;20009;-74
2022/11/19 11:31:40;;;;;;;12.15;5.13;;;;;;;;;;7391786;19;20003;-73
2022/11/19 11:34:27;;;;;;;12.55;5.35;;;;;;;;;;7392368;19;19999;-73
2022/11/19 11:36:54;;;;;;;10.93;5.28;;;;;;;;;;7389245;19;20027;-74
2022/11/19 11:39:29;;;;;;;13.45;6.47;;;;;;;;;;7389762;19;20015;-73
2022/11/19 11:41:56;;;;;;;12.38;5.68;;;;;;;;;;7391718;19;20002;-73
2022/11/19 11:44:24;;;;;;;13.15;6.32;;;;;;;;;;7391525;19;20050;-73
2022/11/19 11:46:52;;;;;;;11.30;6.13;;;;;;;;;;7389554;19;19995;-73
2022/11/19 11:49:23;;;;;;;14.38;5.82;;;;;;;;;;7385797;19;19998;-73
2022/11/19 11:52:02;;;;;;;13.52;6.03;;;;;;;;;;7387017;19;20479;-73
2022/11/19 11:54:27;;;;;;;11.15;4.90;;;;;;;;;;7387134;19;19999;-73
2022/11/19 11:57:06;;;;;;;11.68;5.80;;;;;;;;;;7386137;19;20005;-73
2022/11/19 11:59:31;;;;;;;10.73;6.00;;;;;;;;;;7387344;19;19999;-73
2022/11/19 12:02:01;;;;;;;16.02;7.40;;;;;;;;;;7387100;19;20023;-73
2022/11/19 12:04:26;;;;;;;13.93;6.80;;;;;;;;;;7388029;19;20003;-71
2022/11/19 12:07:00;;;;;;;15.65;6.15;;;;;;;;;;7387658;19;20425;-72
2022/11/19 12:09:37;;;;;;;12.68;6.25;;;;;;;;;;7391544;19;19998;-69
2022/11/19 12:12:29;;;;;;;9.52;4.85;;;;;;;;;;7389789;19;20006;-72
2022/11/19 12:15:03;;;;;;;13.93;5.97;;;;;;;;;;7389639;19;20025;-73
2022/11/19 12:18:23;;;;;;;12.57;5.57;;;;;;;;;;7385808;19;20016;-73
2022/11/19 12:21:24;;;;;;;10.40;5.57;;;;;;;;;;7383930;19;19999;-73
2022/11/19 12:24:17;;;;;;;15.52;7.13;;;;;;;;;;7383520;19;20027;-73
2022/11/19 12:26:51;;;;;;;12.48;6.72;;;;;;;;;;7388355;19;20006;-72
2022/11/19 12:29:38;;;;;;;15.77;7.53;;;;;;;;;;7384678;19;19999;-73
2022/11/19 12:32:23;;;;;;;13.85;6.82;;;;;;;;;;7388543;19;20002;-72
2022/11/19 12:35:20;;;;;;;13.50;7.15;;;;;;;;;;7387998;19;19999;-73
2022/11/19 12:38:05;;;;;;;12.85;5.97;;;;;;;;;;7387476;19;19998;-75
2022/11/19 12:40:39;;;;;;;16.75;7.43;;;;;;;;;;7384667;19;20002;-73
2022/11/19 12:43:38;;;;;;;14.10;6.57;;;;;;;;;;7387562;19;19998;-74
2022/11/19 12:46:22;;;;;;;14.95;6.68;;;;;;;;;;7387151;19;20014;-73
2022/11/19 12:49:28;;;;;;;12.75;6.47;;;;;;;;;;7383396;19;20003;-72
2022/11/19 12:52:25;;;;;;;12.88;6.50;;;;;;;;;;7387997;19;20003;-73
2022/11/19 12:55:05;;;;;;;14.48;6.90;;;;;;;;;;7386777;19;19999;-75
2022/11/19 12:57:43;;;;;;;15.60;6.80;;;;;;;;;;7380205;19;20009;-73
2022/11/19 13:00:18;;;;;;;14.80;7.47;;;;;;;;;;7385173;19;20007;-71
2022/11/19 13:03:04;;;;;;;17.55;8.10;;;;;;;;;;7387968;19;20043;-73
2022/11/19 13:05:43;;;;;;;12.85;6.75;;;;;;;;;;7385893;19;20007;-73
2022/11/19 13:08:21;;;;;;;17.33;7.15;;;;;;;;;;7379526;19;19998;-73
2022/11/19 13:11:21;;;;;;;15.52;7.20;;;;;;;;;;7379937;19;20002;-73
2022/11/19 13:13:57;;;;;;;15.57;6.95;;;;;;;;;;7385565;19;20025;-73
2022/11/19 13:16:24;;;;;;;13.65;6.68;;;;;;;;;;7383668;19;20043;-73
2022/11/19 13:18:53;;;;;;;18.50;7.70;;;;;;;;;;7384305;19;20106;-73
2022/11/19 13:21:44;;;;;;;15.55;8.38;;;;;;;;;;7386872;19;20006;-73
2022/11/19 13:24:27;;;;;;;16.73;7.60;;;;;;;;;;7388041;19;20002;-72
2022/11/19 13:26:56;;;;;;;17.60;8.38;;;;;;;;;;7385176;19;20459;-73
2022/11/19 13:29:40;;;;;;;15.75;8.73;;;;;;;;;;7387855;19;20002;-73
2022/11/19 13:32:35;;;;;;;14.80;7.90;;;;;;;;;;7387841;19;20028;-74
2022/11/19 13:35:10;;;;;;;17.10;7.57;;;;;;;;;;7387720;19;20013;-72
2022/11/19 13:37:44;;;;;;;15.45;7.88;;;;;;;;;;7386137;19;20009;-73
2022/11/19 13:40:24;;;;;;;18.17;9.23;;;;;;;;;;7387382;19;20030;-74
2022/11/19 13:45:35;;;;;;;13.05;6.00;;;;;;;;;;7387660;19;20009;-72
2022/11/19 13:48:15;;;;;;;14.25;7.93;;;;;;;;;;7385462;19;20006;-72
2022/11/19 13:50:44;;;;;;;16.20;8.18;;;;;;;;;;7391894;19;20014;-72
2022/11/19 13:53:14;;;;;;;16.70;7.90;;;;;;;;;;7387325;19;19998;-72
2022/11/19 13:55:41;;;;;;;17.50;7.78;;;;;;;;;;7387201;19;20468;-72
2022/11/19 13:58:20;;;;;;;20.20;8.50;;;;;;;;;;7385050;19;20002;-72
2022/11/19 14:01:08;;;;;;;21.23;8.57;;;;;;;;;;7387165;19;20471;-72
2022/11/19 14:04:02;;;;;;;17.73;8.18;;;;;;;;;;7385563;19;19998;-72
2022/11/19 14:06:45;;;;;;;15.90;8.48;;;;;;;;;;7386298;19;19998;-72
2022/11/19 14:09:48;;;;;;;16.13;8.43;;;;;;;;;;7389608;19;19991;-72
2022/11/19 14:12:27;;;;;;;17.90;9.05;;;;;;;;;;7398699;19;20079;-73
2022/11/19 14:27:17;;;;;;;17.52;7.97;;;;;;;;;;7387926;19;20375;-73
2022/11/19 14:29:45;;;;;;;17.42;8.35;;;;;;;;;;7388310;19;20002;-72
2022/11/19 14:32:10;;;;;;;21.75;8.38;;;;;;;;;;7388022;19;20040;-72
2022/11/19 14:35:08;;;;;;;19.50;8.13;;;;;;;;;;7387520;19;20002;-72
2022/11/19 14:37:41;;;;;;;17.15;8.20;;;;;;;;;;7388982;19;20011;-73
2022/11/19 14:40:13;;;;;;;16.65;7.90;;;;;;;;;;7389589;19;20073;-72
2022/11/19 14:46:00;;;;;;;20.88;9.40;;;;;;;;;;7392009;19;20022;-71
2022/11/19 14:48:39;;;;;;;20.45;8.93;;;;;;;;;;7388568;19;20093;-71
2022/11/19 14:51:10;;;;;;;20.38;9.68;;;;;;;;;;7388447;19;20006;-71
2022/11/19 14:53:47;;;;;;;19.80;8.65;;;;;;;;;;7392610;19;20049;-72
2022/11/19 14:56:14;;;;;;;19.15;8.93;;;;;;;;;;7387395;19;20011;-72
2022/11/19 14:58:51;;;;;;;21.33;9.75;;;;;;;;;;7389735;19;20006;-73
2022/11/19 15:01:18;;;;;;;19.45;10.02;;;;;;;;;;7391058;19;20010;-72
2022/11/19 15:03:54;;;;;;;22.50;10.45;;;;;;;;;;7389711;19;20353;-72
2022/11/19 15:06:20;;;;;;;20.67;8.68;;;;;;;;;;7390437;19;20351;-71
2022/11/19 15:08:51;;;;;;;22.45;9.68;;;;;;;;;;7390027;19;20074;-72
2022/11/19 15:11:17;;;;;;;19.95;8.90;;;;;;;;;;7389575;19;20010;-71
2022/11/19 15:13:45;;;;;;;20.17;9.77;;;;;;;;;;7392431;19;20100;-72
2022/11/19 15:16:13;;;;;;;22.67;9.90;;;;;;;;;;7387907;19;20018;-73
2022/11/19 15:18:39;;;;;;;21.02;8.82;;;;;;;;;;7387952;19;19999;-72
2022/11/19 15:21:10;;;;;;;20.20;9.07;;;;;;;;;;7386687;19;20019;-72
2022/11/19 15:23:41;;;;;;;;;;;;;;;;;;7390871;19;20007;-71
2022/11/19 15:26:31;;;;;;;15.32;7.50;;;;;;;;;;7389032;19;19939;-72
2022/11/19 15:29:19;;;;;;;21.25;9.52;;;;;;;;;;7385519;19;20018;-73
2022/11/19 15:32:15;;;;;;;20.33;8.82;;;;;;;;;;7389205;19;20066;-73
2022/11/19 15:35:05;;;;;;;22.02;10.00;;;;;;;;;;7389159;19;20003;-72
2022/11/19 15:37:53;;;;;;;19.08;9.30;;;;;;;;;;7387146;19;20003;-72
2022/11/19 15:40:23;;;;;;;21.95;9.73;;;;;;;;;;7391240;19;20417;-72